<?xml version="1.0" encoding="utf-8"?>
<gpx xmlns:xsi="http://www.w3.org/2001/XMLSchema-instance" xmlns:xsd="http://www.w3.org/2001/XMLSchema" version="1.1" creator="Shapelink.com" xmlns="http://www.topografix.com/GPX/1/1" xmlns:gpxtpx="http://www.garmin.com/xmlschemas/TrackPointExtension/v1">
  <metadata>
    <name>Löpning 5.20 km, 2019-08-02</name>
    <desc></desc>
    <author><name>Bengt Norberg</name></author> 
    <time>2019-08-02T17:26:53Z</time>
  </metadata>
  <trk>
    <name>Löpning 5.20 km, 2019-08-02</name>
    <trkseg>
      <trkpt lat="59.819406388753" lon="16.985284834342">
        <ele>43.2</ele>
        <time>2019-08-02T17:26:53Z</time>
      </trkpt>
      <trkpt lat="59.819488866649" lon="16.98560770513">
        <ele>43.8</ele>
        <time>2019-08-02T17:27:00Z</time>
      </trkpt>
      <trkpt lat="59.819556257125" lon="16.985953961419">
        <ele>43.8</ele>
        <time>2019-08-02T17:27:07Z</time>
      </trkpt>
      <trkpt lat="59.819618031728" lon="16.9862975355">
        <ele>42.2</ele>
        <time>2019-08-02T17:27:14Z</time>
      </trkpt>
      <trkpt lat="59.819659019219" lon="16.98665544263">
        <ele>40.8</ele>
        <time>2019-08-02T17:27:21Z</time>
      </trkpt>
      <trkpt lat="59.819717105786" lon="16.986999519625">
        <ele>40.4</ele>
        <time>2019-08-02T17:27:28Z</time>
      </trkpt>
      <trkpt lat="59.819765888444" lon="16.987349380131">
        <ele>39.6</ele>
        <time>2019-08-02T17:27:35Z</time>
      </trkpt>
      <trkpt lat="59.819811737437" lon="16.987745592544">
        <ele>35.2</ele>
        <time>2019-08-02T17:27:43Z</time>
      </trkpt>
      <trkpt lat="59.819871919479" lon="16.988095872145">
        <ele>35.8</ele>
        <time>2019-08-02T17:27:50Z</time>
      </trkpt>
      <trkpt lat="59.819924557811" lon="16.988453192542">
        <ele>35.8</ele>
        <time>2019-08-02T17:27:57Z</time>
      </trkpt>
      <trkpt lat="59.819983063473" lon="16.988805232342">
        <ele>36.4</ele>
        <time>2019-08-02T17:28:04Z</time>
      </trkpt>
      <trkpt lat="59.820038384013" lon="16.989149476975">
        <ele>37.2</ele>
        <time>2019-08-02T17:28:11Z</time>
      </trkpt>
      <trkpt lat="59.820186576005" lon="16.989248970128">
        <ele>34</ele>
        <time>2019-08-02T17:28:19Z</time>
      </trkpt>
      <trkpt lat="59.820358907869" lon="16.989109327674">
        <ele>33</ele>
        <time>2019-08-02T17:28:26Z</time>
      </trkpt>
      <trkpt lat="59.820535346864" lon="16.988992567807">
        <ele>34</ele>
        <time>2019-08-02T17:28:33Z</time>
      </trkpt>
      <trkpt lat="59.820716982637" lon="16.988904976952">
        <ele>36.2</ele>
        <time>2019-08-02T17:28:40Z</time>
      </trkpt>
      <trkpt lat="59.820916388038" lon="16.9888204874">
        <ele>36.8</ele>
        <time>2019-08-02T17:28:48Z</time>
      </trkpt>
      <trkpt lat="59.821090228644" lon="16.988726777758">
        <ele>36.8</ele>
        <time>2019-08-02T17:28:55Z</time>
      </trkpt>
      <trkpt lat="59.821270188037" lon="16.988648239355">
        <ele>37.8</ele>
        <time>2019-08-02T17:29:02Z</time>
      </trkpt>
      <trkpt lat="59.821462133547" lon="16.988544471433">
        <ele>38.6</ele>
        <time>2019-08-02T17:29:10Z</time>
      </trkpt>
      <trkpt lat="59.821651396849" lon="16.988457802587">
        <ele>37</ele>
        <time>2019-08-02T17:29:18Z</time>
      </trkpt>
      <trkpt lat="59.821823225799" lon="16.988337773779">
        <ele>38.2</ele>
        <time>2019-08-02T17:29:25Z</time>
      </trkpt>
      <trkpt lat="59.821988181591" lon="16.988193269823">
        <ele>39.2</ele>
        <time>2019-08-02T17:29:32Z</time>
      </trkpt>
      <trkpt lat="59.822175433237" lon="16.988044407279">
        <ele>39.6</ele>
        <time>2019-08-02T17:29:40Z</time>
      </trkpt>
      <trkpt lat="59.822343574151" lon="16.987908117585">
        <ele>41.2</ele>
        <time>2019-08-02T17:29:47Z</time>
      </trkpt>
      <trkpt lat="59.822540045887" lon="16.987785741845">
        <ele>41.8</ele>
        <time>2019-08-02T17:29:55Z</time>
      </trkpt>
      <trkpt lat="59.822717574529" lon="16.987692367479">
        <ele>42.4</ele>
        <time>2019-08-02T17:30:02Z</time>
      </trkpt>
      <trkpt lat="59.822909687677" lon="16.987590611213">
        <ele>42.6</ele>
        <time>2019-08-02T17:30:10Z</time>
      </trkpt>
      <trkpt lat="59.823102639015" lon="16.987487513843">
        <ele>42.6</ele>
        <time>2019-08-02T17:30:18Z</time>
      </trkpt>
      <trkpt lat="59.823290309756" lon="16.987361701524">
        <ele>43.4</ele>
        <time>2019-08-02T17:30:26Z</time>
      </trkpt>
      <trkpt lat="59.82348024361" lon="16.987231530617">
        <ele>44.6</ele>
        <time>2019-08-02T17:30:34Z</time>
      </trkpt>
      <trkpt lat="59.823648468343" lon="16.987096498208">
        <ele>45.4</ele>
        <time>2019-08-02T17:30:41Z</time>
      </trkpt>
      <trkpt lat="59.823834295066" lon="16.986975966486">
        <ele>45.4</ele>
        <time>2019-08-02T17:30:49Z</time>
      </trkpt>
      <trkpt lat="59.824027665499" lon="16.986874294039">
        <ele>46.2</ele>
        <time>2019-08-02T17:30:57Z</time>
      </trkpt>
      <trkpt lat="59.824204355951" lon="16.986785948813">
        <ele>46.4</ele>
        <time>2019-08-02T17:31:04Z</time>
      </trkpt>
      <trkpt lat="59.824388925389" lon="16.986716379043">
        <ele>47</ele>
        <time>2019-08-02T17:31:11Z</time>
      </trkpt>
      <trkpt lat="59.824441815178" lon="16.986694586103">
        <ele>46.8</ele>
        <time>2019-08-02T17:31:13Z</time>
      </trkpt>
      <trkpt lat="59.824486406886" lon="16.986703554736">
        <ele>45</ele>
        <time>2019-08-02T17:31:20Z</time>
      </trkpt>
      <trkpt lat="59.824503003048" lon="16.986702800365">
        <ele>45</ele>
        <time>2019-08-02T17:31:21Z</time>
      </trkpt>
      <trkpt lat="59.824698888051" lon="16.986601714651">
        <ele>45.6</ele>
        <time>2019-08-02T17:31:29Z</time>
      </trkpt>
      <trkpt lat="59.824878176892" lon="16.986508005009">
        <ele>46.2</ele>
        <time>2019-08-02T17:31:36Z</time>
      </trkpt>
      <trkpt lat="59.825055956991" lon="16.986419240688">
        <ele>46.4</ele>
        <time>2019-08-02T17:31:43Z</time>
      </trkpt>
      <trkpt lat="59.825231976891" lon="16.986322597381">
        <ele>46.8</ele>
        <time>2019-08-02T17:31:50Z</time>
      </trkpt>
      <trkpt lat="59.825409421714" lon="16.986207681532">
        <ele>48.2</ele>
        <time>2019-08-02T17:31:57Z</time>
      </trkpt>
      <trkpt lat="59.825588459098" lon="16.98611397189">
        <ele>46</ele>
        <time>2019-08-02T17:32:04Z</time>
      </trkpt>
      <trkpt lat="59.825765736283" lon="16.986006432113">
        <ele>46.4</ele>
        <time>2019-08-02T17:32:11Z</time>
      </trkpt>
      <trkpt lat="59.825964554951" lon="16.985900652535">
        <ele>45.2</ele>
        <time>2019-08-02T17:32:19Z</time>
      </trkpt>
      <trkpt lat="59.826141748317" lon="16.985811217662">
        <ele>44.8</ele>
        <time>2019-08-02T17:32:26Z</time>
      </trkpt>
      <trkpt lat="59.82633763332" lon="16.985698564926">
        <ele>44.6</ele>
        <time>2019-08-02T17:32:34Z</time>
      </trkpt>
      <trkpt lat="59.826474006833" lon="16.985485161752">
        <ele>43.6</ele>
        <time>2019-08-02T17:32:42Z</time>
      </trkpt>
      <trkpt lat="59.826372502024" lon="16.984816034675">
        <ele>43.8</ele>
        <time>2019-08-02T17:32:56Z</time>
      </trkpt>
      <trkpt lat="59.826336459854" lon="16.984424851402">
        <ele>43.2</ele>
        <time>2019-08-02T17:33:04Z</time>
      </trkpt>
      <trkpt lat="59.82629991477" lon="16.984020843822">
        <ele>43.8</ele>
        <time>2019-08-02T17:33:12Z</time>
      </trkpt>
      <trkpt lat="59.826271919224" lon="16.983660673579">
        <ele>44</ele>
        <time>2019-08-02T17:33:19Z</time>
      </trkpt>
      <trkpt lat="59.826241073832" lon="16.983298407861">
        <ele>44</ele>
        <time>2019-08-02T17:33:26Z</time>
      </trkpt>
      <trkpt lat="59.826222046919" lon="16.982929855718">
        <ele>44.4</ele>
        <time>2019-08-02T17:33:33Z</time>
      </trkpt>
      <trkpt lat="59.826196314486" lon="16.982564404878">
        <ele>45.2</ele>
        <time>2019-08-02T17:33:40Z</time>
      </trkpt>
      <trkpt lat="59.826162367791" lon="16.982191661785">
        <ele>45.8</ele>
        <time>2019-08-02T17:33:47Z</time>
      </trkpt>
      <trkpt lat="59.826116937893" lon="16.98182327728">
        <ele>45.8</ele>
        <time>2019-08-02T17:33:55Z</time>
      </trkpt>
      <trkpt lat="59.826109980916" lon="16.981452378205">
        <ele>45</ele>
        <time>2019-08-02T17:34:02Z</time>
      </trkpt>
      <trkpt lat="59.826075447488" lon="16.981098326749">
        <ele>45.8</ele>
        <time>2019-08-02T17:34:09Z</time>
      </trkpt>
      <trkpt lat="59.826042758078" lon="16.980726505665">
        <ele>47</ele>
        <time>2019-08-02T17:34:17Z</time>
      </trkpt>
      <trkpt lat="59.826019372577" lon="16.980355522771">
        <ele>47.6</ele>
        <time>2019-08-02T17:34:25Z</time>
      </trkpt>
      <trkpt lat="59.825997160542" lon="16.979980600384">
        <ele>47.2</ele>
        <time>2019-08-02T17:34:32Z</time>
      </trkpt>
      <trkpt lat="59.825976289611" lon="16.979614478992">
        <ele>46.6</ele>
        <time>2019-08-02T17:34:39Z</time>
      </trkpt>
      <trkpt lat="59.825946282409" lon="16.979249866342">
        <ele>45.8</ele>
        <time>2019-08-02T17:34:46Z</time>
      </trkpt>
      <trkpt lat="59.825922142537" lon="16.978894725239">
        <ele>44.6</ele>
        <time>2019-08-02T17:34:53Z</time>
      </trkpt>
      <trkpt lat="59.825940247441" lon="16.978695236019">
        <ele>43.6</ele>
        <time>2019-08-02T17:35:00Z</time>
      </trkpt>
      <trkpt lat="59.825980061466" lon="16.979084742912">
        <ele>43.6</ele>
        <time>2019-08-02T17:35:06Z</time>
      </trkpt>
      <trkpt lat="59.826034543816" lon="16.979459246204">
        <ele>44.2</ele>
        <time>2019-08-02T17:35:13Z</time>
      </trkpt>
      <trkpt lat="59.826070921262" lon="16.979810112538">
        <ele>45.4</ele>
        <time>2019-08-02T17:35:20Z</time>
      </trkpt>
      <trkpt lat="59.826105035595" lon="16.980171623885">
        <ele>46.4</ele>
        <time>2019-08-02T17:35:27Z</time>
      </trkpt>
      <trkpt lat="59.826139485204" lon="16.98053330287">
        <ele>47.6</ele>
        <time>2019-08-02T17:35:34Z</time>
      </trkpt>
      <trkpt lat="59.82616664256" lon="16.980935466432">
        <ele>45.4</ele>
        <time>2019-08-02T17:35:42Z</time>
      </trkpt>
      <trkpt lat="59.826193799916" lon="16.98132203966">
        <ele>46.2</ele>
        <time>2019-08-02T17:35:50Z</time>
      </trkpt>
      <trkpt lat="59.826243085488" lon="16.981716156598">
        <ele>48.2</ele>
        <time>2019-08-02T17:35:58Z</time>
      </trkpt>
      <trkpt lat="59.826283067151" lon="16.982109435346">
        <ele>53</ele>
        <time>2019-08-02T17:36:06Z</time>
      </trkpt>
      <trkpt lat="59.826321456253" lon="16.982506150673">
        <ele>55.4</ele>
        <time>2019-08-02T17:36:14Z</time>
      </trkpt>
      <trkpt lat="59.82635858807" lon="16.982871266237">
        <ele>57</ele>
        <time>2019-08-02T17:36:21Z</time>
      </trkpt>
      <trkpt lat="59.826409047108" lon="16.983258007103">
        <ele>62.4</ele>
        <time>2019-08-02T17:36:29Z</time>
      </trkpt>
      <trkpt lat="59.826459254689" lon="16.9836153275">
        <ele>66.2</ele>
        <time>2019-08-02T17:36:36Z</time>
      </trkpt>
      <trkpt lat="59.826513066487" lon="16.983963511626">
        <ele>70.6</ele>
        <time>2019-08-02T17:36:43Z</time>
      </trkpt>
      <trkpt lat="59.82656478281" lon="16.98435461108">
        <ele>74.8</ele>
        <time>2019-08-02T17:36:51Z</time>
      </trkpt>
      <trkpt lat="59.826614655115" lon="16.984747135457">
        <ele>80.8</ele>
        <time>2019-08-02T17:36:59Z</time>
      </trkpt>
      <trkpt lat="59.826655223511" lon="16.985130607382">
        <ele>85</ele>
        <time>2019-08-02T17:37:07Z</time>
      </trkpt>
      <trkpt lat="59.826693947889" lon="16.985490526168">
        <ele>87.4</ele>
        <time>2019-08-02T17:37:14Z</time>
      </trkpt>
      <trkpt lat="59.826743987832" lon="16.985739384779">
        <ele>88</ele>
        <time>2019-08-02T17:37:20Z</time>
      </trkpt>
      <trkpt lat="59.826934759876" lon="16.985745671204">
        <ele>88.6</ele>
        <time>2019-08-02T17:37:27Z</time>
      </trkpt>
      <trkpt lat="59.827134165277" lon="16.985846002547">
        <ele>83.6</ele>
        <time>2019-08-02T17:37:36Z</time>
      </trkpt>
      <trkpt lat="59.827332313393" lon="16.98588346964">
        <ele>79</ele>
        <time>2019-08-02T17:37:44Z</time>
      </trkpt>
      <trkpt lat="59.827529707138" lon="16.985861928157">
        <ele>74</ele>
        <time>2019-08-02T17:37:52Z</time>
      </trkpt>
      <trkpt lat="59.82771980863" lon="16.985700660401">
        <ele>74.8</ele>
        <time>2019-08-02T17:38:00Z</time>
      </trkpt>
      <trkpt lat="59.827879316187" lon="16.985505026855">
        <ele>74</ele>
        <time>2019-08-02T17:38:08Z</time>
      </trkpt>
      <trkpt lat="59.828038153192" lon="16.985323726358">
        <ele>73</ele>
        <time>2019-08-02T17:38:15Z</time>
      </trkpt>
      <trkpt lat="59.828188273021" lon="16.985113927401">
        <ele>69.8</ele>
        <time>2019-08-02T17:38:23Z</time>
      </trkpt>
      <trkpt lat="59.828349959872" lon="16.984948803971">
        <ele>69.8</ele>
        <time>2019-08-02T17:38:30Z</time>
      </trkpt>
      <trkpt lat="59.828531595645" lon="16.984768425483">
        <ele>69.8</ele>
        <time>2019-08-02T17:38:38Z</time>
      </trkpt>
      <trkpt lat="59.828762768447" lon="16.984555944318">
        <ele>70</ele>
        <time>2019-08-02T17:38:48Z</time>
      </trkpt>
      <trkpt lat="59.828927975696" lon="16.984398364598">
        <ele>71.6</ele>
        <time>2019-08-02T17:38:55Z</time>
      </trkpt>
      <trkpt lat="59.829056637861" lon="16.98412578521">
        <ele>72.8</ele>
        <time>2019-08-02T17:39:03Z</time>
      </trkpt>
      <trkpt lat="59.829188485148" lon="16.983835100918">
        <ele>74</ele>
        <time>2019-08-02T17:39:11Z</time>
      </trkpt>
      <trkpt lat="59.829302646626" lon="16.98355749239">
        <ele>74.2</ele>
        <time>2019-08-02T17:39:18Z</time>
      </trkpt>
      <trkpt lat="59.829418903579" lon="16.983273765075">
        <ele>75.6</ele>
        <time>2019-08-02T17:39:25Z</time>
      </trkpt>
      <trkpt lat="59.829541279319" lon="16.982988109923">
        <ele>71.2</ele>
        <time>2019-08-02T17:39:33Z</time>
      </trkpt>
      <trkpt lat="59.829580338973" lon="16.982555687702">
        <ele>47.4</ele>
        <time>2019-08-02T17:39:44Z</time>
      </trkpt>
      <trkpt lat="59.829727525137" lon="16.982296351716">
        <ele>44.2</ele>
        <time>2019-08-02T17:39:52Z</time>
      </trkpt>
      <trkpt lat="59.8299099991" lon="16.982131228286">
        <ele>41.4</ele>
        <time>2019-08-02T17:40:00Z</time>
      </trkpt>
      <trkpt lat="59.830091634873" lon="16.981967194503">
        <ele>39.6</ele>
        <time>2019-08-02T17:40:08Z</time>
      </trkpt>
      <trkpt lat="59.830268660601" lon="16.981797963942">
        <ele>37.8</ele>
        <time>2019-08-02T17:40:16Z</time>
      </trkpt>
      <trkpt lat="59.830443590854" lon="16.981626051173">
        <ele>37.2</ele>
        <time>2019-08-02T17:40:24Z</time>
      </trkpt>
      <trkpt lat="59.830619694573" lon="16.981440978821">
        <ele>36.2</ele>
        <time>2019-08-02T17:40:32Z</time>
      </trkpt>
      <trkpt lat="59.830789428048" lon="16.981234532624">
        <ele>37.2</ele>
        <time>2019-08-02T17:40:40Z</time>
      </trkpt>
      <trkpt lat="59.830954886754" lon="16.981011657903">
        <ele>39.4</ele>
        <time>2019-08-02T17:40:48Z</time>
      </trkpt>
      <trkpt lat="59.831123279125" lon="16.980783251128">
        <ele>40.8</ele>
        <time>2019-08-02T17:40:56Z</time>
      </trkpt>
      <trkpt lat="59.831293766971" lon="16.980569596497">
        <ele>40.8</ele>
        <time>2019-08-02T17:41:04Z</time>
      </trkpt>
      <trkpt lat="59.83146735612" lon="16.980379495005">
        <ele>40.2</ele>
        <time>2019-08-02T17:41:12Z</time>
      </trkpt>
      <trkpt lat="59.831651087368" lon="16.980216550869">
        <ele>39</ele>
        <time>2019-08-02T17:41:20Z</time>
      </trkpt>
      <trkpt lat="59.831834231883" lon="16.980069280886">
        <ele>38.6</ele>
        <time>2019-08-02T17:41:28Z</time>
      </trkpt>
      <trkpt lat="59.83201804695" lon="16.979917149401">
        <ele>39.8</ele>
        <time>2019-08-02T17:41:36Z</time>
      </trkpt>
      <trkpt lat="59.832209489546" lon="16.979835425876">
        <ele>40</ele>
        <time>2019-08-02T17:41:44Z</time>
      </trkpt>
      <trkpt lat="59.832403446712" lon="16.979759569681">
        <ele>40.8</ele>
        <time>2019-08-02T17:41:52Z</time>
      </trkpt>
      <trkpt lat="59.83259136891" lon="16.979644570013">
        <ele>42.6</ele>
        <time>2019-08-02T17:42:00Z</time>
      </trkpt>
      <trkpt lat="59.83269949542" lon="16.97950652012">
        <ele>42</ele>
        <time>2019-08-02T17:42:07Z</time>
      </trkpt>
      <trkpt lat="59.832560104423" lon="16.979778261318">
        <ele>42.8</ele>
        <time>2019-08-02T17:42:15Z</time>
      </trkpt>
      <trkpt lat="59.832366482533" lon="16.979859733386">
        <ele>44.2</ele>
        <time>2019-08-02T17:42:22Z</time>
      </trkpt>
      <trkpt lat="59.832171854815" lon="16.979944809671">
        <ele>44.4</ele>
        <time>2019-08-02T17:42:29Z</time>
      </trkpt>
      <trkpt lat="59.831988375024" lon="16.980046230661">
        <ele>43</ele>
        <time>2019-08-02T17:42:36Z</time>
      </trkpt>
      <trkpt lat="59.831812438943" lon="16.980179838147">
        <ele>41</ele>
        <time>2019-08-02T17:42:43Z</time>
      </trkpt>
      <trkpt lat="59.831640274717" lon="16.980326856673">
        <ele>38.8</ele>
        <time>2019-08-02T17:42:50Z</time>
      </trkpt>
      <trkpt lat="59.831473558726" lon="16.980493488845">
        <ele>39</ele>
        <time>2019-08-02T17:42:57Z</time>
      </trkpt>
      <trkpt lat="59.831291671496" lon="16.980682752147">
        <ele>40.2</ele>
        <time>2019-08-02T17:43:05Z</time>
      </trkpt>
      <trkpt lat="59.831131744844" lon="16.980904369583">
        <ele>39.8</ele>
        <time>2019-08-02T17:43:12Z</time>
      </trkpt>
      <trkpt lat="59.830967375785" lon="16.981096734188">
        <ele>38.8</ele>
        <time>2019-08-02T17:43:19Z</time>
      </trkpt>
      <trkpt lat="59.830801414165" lon="16.981276693581">
        <ele>38.2</ele>
        <time>2019-08-02T17:43:26Z</time>
      </trkpt>
      <trkpt lat="59.830632267423" lon="16.981459754277">
        <ele>37</ele>
        <time>2019-08-02T17:43:33Z</time>
      </trkpt>
      <trkpt lat="59.83047326278" lon="16.981653795262">
        <ele>36.6</ele>
        <time>2019-08-02T17:43:40Z</time>
      </trkpt>
      <trkpt lat="59.830303277848" lon="16.981855631414">
        <ele>38.8</ele>
        <time>2019-08-02T17:43:48Z</time>
      </trkpt>
      <trkpt lat="59.830148128879" lon="16.982037351006">
        <ele>39.6</ele>
        <time>2019-08-02T17:43:55Z</time>
      </trkpt>
      <trkpt lat="59.829979736508" lon="16.982230469982">
        <ele>40.4</ele>
        <time>2019-08-02T17:44:03Z</time>
      </trkpt>
      <trkpt lat="59.829805895902" lon="16.982422331673">
        <ele>39.2</ele>
        <time>2019-08-02T17:44:11Z</time>
      </trkpt>
      <trkpt lat="59.829656614263" lon="16.982628023499">
        <ele>39</ele>
        <time>2019-08-02T17:44:18Z</time>
      </trkpt>
      <trkpt lat="59.829524934614" lon="16.982874116083">
        <ele>38.8</ele>
        <time>2019-08-02T17:44:25Z</time>
      </trkpt>
      <trkpt lat="59.82939451225" lon="16.983154155362">
        <ele>41</ele>
        <time>2019-08-02T17:44:33Z</time>
      </trkpt>
      <trkpt lat="59.829188485148" lon="16.983629325273">
        <ele>39.4</ele>
        <time>2019-08-02T17:44:45Z</time>
      </trkpt>
      <trkpt lat="59.82906929453" lon="16.983921769764">
        <ele>37.6</ele>
        <time>2019-08-02T17:44:52Z</time>
      </trkpt>
      <trkpt lat="59.828952283206" lon="16.984198791559">
        <ele>36</ele>
        <time>2019-08-02T17:44:59Z</time>
      </trkpt>
      <trkpt lat="59.828804845585" lon="16.984477322096">
        <ele>35</ele>
        <time>2019-08-02T17:45:07Z</time>
      </trkpt>
      <trkpt lat="59.82865606686" lon="16.984689300347">
        <ele>34.4</ele>
        <time>2019-08-02T17:45:14Z</time>
      </trkpt>
      <trkpt lat="59.828472084155" lon="16.984840509823">
        <ele>32.4</ele>
        <time>2019-08-02T17:45:22Z</time>
      </trkpt>
      <trkpt lat="59.828293046771" lon="16.984983421218">
        <ele>32.2</ele>
        <time>2019-08-02T17:45:30Z</time>
      </trkpt>
      <trkpt lat="59.828212412893" lon="16.985047207477">
        <ele>33.4</ele>
        <time>2019-08-02T17:45:36Z</time>
      </trkpt>
      <trkpt lat="59.828284245776" lon="16.984961712097">
        <ele>33.4</ele>
        <time>2019-08-02T17:45:39Z</time>
      </trkpt>
      <trkpt lat="59.828261363189" lon="16.984936566397">
        <ele>33.6</ele>
        <time>2019-08-02T17:45:49Z</time>
      </trkpt>
      <trkpt lat="59.828191039048" lon="16.985000771751">
        <ele>34.2</ele>
        <time>2019-08-02T17:45:52Z</time>
      </trkpt>
      <trkpt lat="59.82803832083" lon="16.985207469405">
        <ele>34</ele>
        <time>2019-08-02T17:45:59Z</time>
      </trkpt>
      <trkpt lat="59.827884764422" lon="16.985417436">
        <ele>34.4</ele>
        <time>2019-08-02T17:46:06Z</time>
      </trkpt>
      <trkpt lat="59.827720898277" lon="16.985651374829">
        <ele>32.2</ele>
        <time>2019-08-02T17:46:13Z</time>
      </trkpt>
      <trkpt lat="59.827562480367" lon="16.985825802168">
        <ele>32.4</ele>
        <time>2019-08-02T17:46:20Z</time>
      </trkpt>
      <trkpt lat="59.827375983092" lon="16.985981873146">
        <ele>33</ele>
        <time>2019-08-02T17:46:28Z</time>
      </trkpt>
      <trkpt lat="59.827174649854" lon="16.986007437941">
        <ele>34.2</ele>
        <time>2019-08-02T17:46:36Z</time>
      </trkpt>
      <trkpt lat="59.826974238625" lon="16.985952033582">
        <ele>37.6</ele>
        <time>2019-08-02T17:46:44Z</time>
      </trkpt>
      <trkpt lat="59.826775084681" lon="16.985874081912">
        <ele>40.2</ele>
        <time>2019-08-02T17:46:52Z</time>
      </trkpt>
      <trkpt lat="59.826574421995" lon="16.985821946494">
        <ele>42.8</ele>
        <time>2019-08-02T17:47:00Z</time>
      </trkpt>
      <trkpt lat="59.826429918039" lon="16.985758244054">
        <ele>44.2</ele>
        <time>2019-08-02T17:47:06Z</time>
      </trkpt>
      <trkpt lat="59.82639546843" lon="16.985370078265">
        <ele>44.2</ele>
        <time>2019-08-02T17:47:13Z</time>
      </trkpt>
      <trkpt lat="59.826370238911" lon="16.984971770377">
        <ele>42.4</ele>
        <time>2019-08-02T17:47:21Z</time>
      </trkpt>
      <trkpt lat="59.826344506478" lon="16.98457170229">
        <ele>41</ele>
        <time>2019-08-02T17:47:29Z</time>
      </trkpt>
      <trkpt lat="59.826311733249" lon="16.9841852967">
        <ele>39.4</ele>
        <time>2019-08-02T17:47:37Z</time>
      </trkpt>
      <trkpt lat="59.826288766843" lon="16.983791515038">
        <ele>38.2</ele>
        <time>2019-08-02T17:47:45Z</time>
      </trkpt>
      <trkpt lat="59.82626135803" lon="16.983406702009">
        <ele>38.2</ele>
        <time>2019-08-02T17:47:53Z</time>
      </trkpt>
      <trkpt lat="59.826230512638" lon="16.983022140437">
        <ele>38</ele>
        <time>2019-08-02T17:48:01Z</time>
      </trkpt>
      <trkpt lat="59.826199415789" lon="16.982636489218">
        <ele>37.8</ele>
        <time>2019-08-02T17:48:09Z</time>
      </trkpt>
      <trkpt lat="59.826168654216" lon="16.982252262922">
        <ele>37.6</ele>
        <time>2019-08-02T17:48:17Z</time>
      </trkpt>
      <trkpt lat="59.826140071937" lon="16.98186099583">
        <ele>37.8</ele>
        <time>2019-08-02T17:48:25Z</time>
      </trkpt>
      <trkpt lat="59.826110232373" lon="16.981475763706">
        <ele>37.6</ele>
        <time>2019-08-02T17:48:33Z</time>
      </trkpt>
      <trkpt lat="59.826086679234" lon="16.981112240703">
        <ele>36.8</ele>
        <time>2019-08-02T17:48:41Z</time>
      </trkpt>
      <trkpt lat="59.826054492738" lon="16.980717034118">
        <ele>36.8</ele>
        <time>2019-08-02T17:48:49Z</time>
      </trkpt>
      <trkpt lat="59.826019288758" lon="16.980342279369">
        <ele>37.2</ele>
        <time>2019-08-02T17:48:57Z</time>
      </trkpt>
      <trkpt lat="59.825983330407" lon="16.979987557361">
        <ele>37.4</ele>
        <time>2019-08-02T17:49:05Z</time>
      </trkpt>
      <trkpt lat="59.825959441992" lon="16.979629147317">
        <ele>37.4</ele>
        <time>2019-08-02T17:49:13Z</time>
      </trkpt>
      <trkpt lat="59.825936643224" lon="16.979265456676">
        <ele>38.2</ele>
        <time>2019-08-02T17:49:21Z</time>
      </trkpt>
      <trkpt lat="59.825926501125" lon="16.978898664732">
        <ele>37.8</ele>
        <time>2019-08-02T17:49:29Z</time>
      </trkpt>
      <trkpt lat="59.825932033179" lon="16.978815767741">
        <ele>38</ele>
        <time>2019-08-02T17:49:31Z</time>
      </trkpt>
      <trkpt lat="59.825940750355" lon="16.979102596359">
        <ele>38</ele>
        <time>2019-08-02T17:49:38Z</time>
      </trkpt>
      <trkpt lat="59.825986096434" lon="16.979456563996">
        <ele>39</ele>
        <time>2019-08-02T17:49:45Z</time>
      </trkpt>
      <trkpt lat="59.826024653174" lon="16.979752864161">
        <ele>38.2</ele>
        <time>2019-08-02T17:49:51Z</time>
      </trkpt>
      <trkpt lat="59.826048876865" lon="16.980128205643">
        <ele>38.8</ele>
        <time>2019-08-02T17:49:59Z</time>
      </trkpt>
      <trkpt lat="59.826085589587" lon="16.980513773043">
        <ele>37.6</ele>
        <time>2019-08-02T17:50:07Z</time>
      </trkpt>
      <trkpt lat="59.826124565422" lon="16.980899675719">
        <ele>39</ele>
        <time>2019-08-02T17:50:15Z</time>
      </trkpt>
      <trkpt lat="59.826165972008" lon="16.981293960295">
        <ele>40.8</ele>
        <time>2019-08-02T17:50:23Z</time>
      </trkpt>
      <trkpt lat="59.826196398305" lon="16.981680365885">
        <ele>41.8</ele>
        <time>2019-08-02T17:50:31Z</time>
      </trkpt>
      <trkpt lat="59.826240738556" lon="16.982065849466">
        <ele>43.8</ele>
        <time>2019-08-02T17:50:39Z</time>
      </trkpt>
      <trkpt lat="59.826305363005" lon="16.982594160623">
        <ele>48</ele>
        <time>2019-08-02T17:50:50Z</time>
      </trkpt>
      <trkpt lat="59.826335454026" lon="16.982991211226">
        <ele>48.2</ele>
        <time>2019-08-02T17:50:58Z</time>
      </trkpt>
      <trkpt lat="59.826339896433" lon="16.983393710064">
        <ele>45.4</ele>
        <time>2019-08-02T17:51:06Z</time>
      </trkpt>
      <trkpt lat="59.826359174803" lon="16.983789503382">
        <ele>44.2</ele>
        <time>2019-08-02T17:51:14Z</time>
      </trkpt>
      <trkpt lat="59.826396222801" lon="16.984184290872">
        <ele>45.2</ele>
        <time>2019-08-02T17:51:22Z</time>
      </trkpt>
      <trkpt lat="59.826443077622" lon="16.984556363413">
        <ele>47.4</ele>
        <time>2019-08-02T17:51:30Z</time>
      </trkpt>
      <trkpt lat="59.826495129221" lon="16.984927513945">
        <ele>50.2</ele>
        <time>2019-08-02T17:51:38Z</time>
      </trkpt>
      <trkpt lat="59.826519604369" lon="16.985314422449">
        <ele>49.2</ele>
        <time>2019-08-02T17:51:46Z</time>
      </trkpt>
      <trkpt lat="59.826532344857" lon="16.985673670683">
        <ele>48</ele>
        <time>2019-08-02T17:51:53Z</time>
      </trkpt>
      <trkpt lat="59.826517257437" lon="16.985725722282">
        <ele>47.4</ele>
        <time>2019-08-02T17:51:54Z</time>
      </trkpt>
      <trkpt lat="59.826385913064" lon="16.985841392502">
        <ele>43</ele>
        <time>2019-08-02T17:51:58Z</time>
      </trkpt>
      <trkpt lat="59.826211318087" lon="16.985949183736">
        <ele>41.4</ele>
        <time>2019-08-02T17:52:04Z</time>
      </trkpt>
      <trkpt lat="59.826024820812" lon="16.986054879495">
        <ele>40.4</ele>
        <time>2019-08-02T17:52:11Z</time>
      </trkpt>
      <trkpt lat="59.825852237491" lon="16.986163760376">
        <ele>41.2</ele>
        <time>2019-08-02T17:52:18Z</time>
      </trkpt>
      <trkpt lat="59.825681246731" lon="16.986280520243">
        <ele>41</ele>
        <time>2019-08-02T17:52:25Z</time>
      </trkpt>
      <trkpt lat="59.825497431664" lon="16.986388311477">
        <ele>42.6</ele>
        <time>2019-08-02T17:52:33Z</time>
      </trkpt>
      <trkpt lat="59.825322669049" lon="16.986481182929">
        <ele>43.4</ele>
        <time>2019-08-02T17:52:40Z</time>
      </trkpt>
      <trkpt lat="59.825126951684" lon="16.986584950851">
        <ele>44</ele>
        <time>2019-08-02T17:52:48Z</time>
      </trkpt>
      <trkpt lat="59.824951937612" lon="16.986677067932">
        <ele>43.8</ele>
        <time>2019-08-02T17:52:55Z</time>
      </trkpt>
      <trkpt lat="59.824772229676" lon="16.986756779801">
        <ele>43.6</ele>
        <time>2019-08-02T17:53:02Z</time>
      </trkpt>
      <trkpt lat="59.824581373813" lon="16.98684571176">
        <ele>44.6</ele>
        <time>2019-08-02T17:53:10Z</time>
      </trkpt>
      <trkpt lat="59.824389512122" lon="16.986952748623">
        <ele>44.8</ele>
        <time>2019-08-02T17:53:18Z</time>
      </trkpt>
      <trkpt lat="59.824209049815" lon="16.987008907353">
        <ele>43.8</ele>
        <time>2019-08-02T17:53:25Z</time>
      </trkpt>
      <trkpt lat="59.82401500883" lon="16.98709800695">
        <ele>43.4</ele>
        <time>2019-08-02T17:53:33Z</time>
      </trkpt>
      <trkpt lat="59.823818369456" lon="16.987187022728">
        <ele>42.6</ele>
        <time>2019-08-02T17:53:41Z</time>
      </trkpt>
      <trkpt lat="59.823635141122" lon="16.987300597473">
        <ele>41.8</ele>
        <time>2019-08-02T17:53:49Z</time>
      </trkpt>
      <trkpt lat="59.823446464553" lon="16.987407718155">
        <ele>41.6</ele>
        <time>2019-08-02T17:53:57Z</time>
      </trkpt>
      <trkpt lat="59.823275641431" lon="16.987518945968">
        <ele>42.2</ele>
        <time>2019-08-02T17:54:04Z</time>
      </trkpt>
      <trkpt lat="59.823096855504" lon="16.987623971175">
        <ele>43.4</ele>
        <time>2019-08-02T17:54:11Z</time>
      </trkpt>
      <trkpt lat="59.822903149795" lon="16.987752381883">
        <ele>43.2</ele>
        <time>2019-08-02T17:54:19Z</time>
      </trkpt>
      <trkpt lat="59.822707767706" lon="16.987878445659">
        <ele>41.8</ele>
        <time>2019-08-02T17:54:27Z</time>
      </trkpt>
      <trkpt lat="59.822517414757" lon="16.987998055372">
        <ele>40.8</ele>
        <time>2019-08-02T17:54:35Z</time>
      </trkpt>
      <trkpt lat="59.822346843092" lon="16.988113474135">
        <ele>41.2</ele>
        <time>2019-08-02T17:54:42Z</time>
      </trkpt>
      <trkpt lat="59.822152215374" lon="16.988211626184">
        <ele>41</ele>
        <time>2019-08-02T17:54:50Z</time>
      </trkpt>
      <trkpt lat="59.821981895166" lon="16.988326374395">
        <ele>41</ele>
        <time>2019-08-02T17:54:57Z</time>
      </trkpt>
      <trkpt lat="59.821810652949" lon="16.988447911945">
        <ele>40.4</ele>
        <time>2019-08-02T17:55:04Z</time>
      </trkpt>
      <trkpt lat="59.8216370638" lon="16.988555535541">
        <ele>40.4</ele>
        <time>2019-08-02T17:55:11Z</time>
      </trkpt>
      <trkpt lat="59.821462301185" lon="16.988651340658">
        <ele>42.2</ele>
        <time>2019-08-02T17:55:18Z</time>
      </trkpt>
      <trkpt lat="59.821270188037" lon="16.988769860724">
        <ele>43.2</ele>
        <time>2019-08-02T17:55:26Z</time>
      </trkpt>
      <trkpt lat="59.821078996898" lon="16.988862564538">
        <ele>44.2</ele>
        <time>2019-08-02T17:55:34Z</time>
      </trkpt>
      <trkpt lat="59.820878837126" lon="16.988954681619">
        <ele>43</ele>
        <time>2019-08-02T17:55:42Z</time>
      </trkpt>
      <trkpt lat="59.820702230493" lon="16.989023077923">
        <ele>42</ele>
        <time>2019-08-02T17:55:49Z</time>
      </trkpt>
      <trkpt lat="59.820510787897" lon="16.989100023765">
        <ele>40.8</ele>
        <time>2019-08-02T17:55:57Z</time>
      </trkpt>
      <trkpt lat="59.820318004197" lon="16.98918677643">
        <ele>40.4</ele>
        <time>2019-08-02T17:56:05Z</time>
      </trkpt>
      <trkpt lat="59.820125723411" lon="16.989288365058">
        <ele>41</ele>
        <time>2019-08-02T17:56:13Z</time>
      </trkpt>
      <trkpt lat="59.820049112845" lon="16.989277552407">
        <ele>40.2</ele>
        <time>2019-08-02T17:56:16Z</time>
      </trkpt>
      <trkpt lat="59.819987338242" lon="16.98902332938">
        <ele>39.6</ele>
        <time>2019-08-02T17:56:21Z</time>
      </trkpt>
      <trkpt lat="59.819918355205" lon="16.988648406993">
        <ele>39.6</ele>
        <time>2019-08-02T17:56:28Z</time>
      </trkpt>
      <trkpt lat="59.819858843715" lon="16.988362416565">
        <ele>39.2</ele>
        <time>2019-08-02T17:56:35Z</time>
      </trkpt>
      <trkpt lat="59.819940734878" lon="16.988701129144">
        <ele>35.2</ele>
        <time>2019-08-02T17:56:42Z</time>
      </trkpt>
      <trkpt lat="59.819973089012" lon="16.988859127959">
        <ele>34.6</ele>
        <time>2019-08-02T17:56:45Z</time>
      </trkpt>
      <trkpt lat="59.820047185008" lon="16.989194571597">
        <ele>33.4</ele>
        <time>2019-08-02T17:56:52Z</time>
      </trkpt>
      <trkpt lat="59.820090267974" lon="16.989248383395">
        <ele>34</ele>
        <time>2019-08-02T17:56:54Z</time>
      </trkpt>
      <trkpt lat="59.820209542411" lon="16.98919851109">
        <ele>33.2</ele>
        <time>2019-08-02T17:56:59Z</time>
      </trkpt>
      <trkpt lat="59.820404589224" lon="16.98909960467">
        <ele>34</ele>
        <time>2019-08-02T17:57:07Z</time>
      </trkpt>
      <trkpt lat="59.82059687001" lon="16.98897471436">
        <ele>33.6</ele>
        <time>2019-08-02T17:57:15Z</time>
      </trkpt>
      <trkpt lat="59.82077875724" lon="16.988852003344">
        <ele>33.8</ele>
        <time>2019-08-02T17:57:23Z</time>
      </trkpt>
      <trkpt lat="59.820971624759" lon="16.988764496308">
        <ele>33.8</ele>
        <time>2019-08-02T17:57:31Z</time>
      </trkpt>
      <trkpt lat="59.821170694884" lon="16.988699955678">
        <ele>34.8</ele>
        <time>2019-08-02T17:57:39Z</time>
      </trkpt>
      <trkpt lat="59.821286197466" lon="16.988633403392">
        <ele>35.2</ele>
        <time>2019-08-02T17:57:44Z</time>
      </trkpt>
    </trkseg>
  </trk>
</gpx>